Silva Jardim, Brazil
Current Conditions -  °F | °C
As of 12:00 PM on Sunday 23 Nov 2014 (Local Time) from SBES Reporting Station
Broken Clouds Broken Clouds  
Wind Chill: 81°   Ceiling: 7000
Heat Index: 85°   Visibility: 6mi
Dew Point: 73°   Wind: 10mph
Humidity: 79%   Direction: 220°SW
Pressure: 29.88"   Gusts: NA
Location:  22.65°S, 42.4°W
Report Text: SBES 231400Z 22009KT 9999 FEW020 SCT030 BKN070 27/23 Q1012
Loading
Personal Weather Stations






























Interactive Weather Map New forecast layout! Learn more

10-Day Weather Forecast

Advertisements
Track Severe Weather on mobile